createdAt,value
2023-09-04T00:02:02.714Z,2.80
2023-09-04T00:07:10.532Z,2.50
2023-09-04T00:12:16.129Z,2.63
2023-09-04T00:17:21.926Z,3.03
2023-09-04T00:22:29.603Z,3.40
2023-09-04T00:27:34.876Z,2.20
2023-09-04T00:32:40.122Z,2.70
2023-09-04T00:37:48.437Z,2.50
2023-09-04T00:42:53.645Z,2.70
2023-09-04T00:47:59.065Z,2.50
2023-09-04T00:53:10.500Z,2.73
2023-09-04T00:58:15.656Z,3.13
2023-09-04T01:03:23.860Z,3.27
2023-09-04T01:08:31.949Z,2.00
2023-09-04T01:13:43.293Z,2.97
2023-09-04T01:18:48.781Z,3.10
2023-09-04T01:23:56.668Z,2.60
2023-09-04T01:29:12.821Z,2.70
2023-09-04T01:34:23.493Z,2.97
2023-09-04T01:39:31.729Z,3.33
2023-09-04T01:44:37.465Z,3.10
2023-09-04T01:49:44.112Z,2.93
2023-09-04T01:54:53.056Z,2.83
2023-09-04T01:59:58.256Z,3.03
2023-09-04T02:05:03.850Z,3.27
2023-09-04T02:10:12.977Z,3.17
2023-09-04T02:15:18.517Z,2.87
2023-09-04T02:20:24.362Z,2.70
2023-09-04T02:25:32.643Z,3.00
2023-09-04T02:30:44.027Z,2.90
2023-09-04T02:36:02.988Z,2.70
2023-09-04T02:41:13.021Z,3.27
2023-09-04T02:46:18.164Z,3.30
2023-09-04T02:51:23.292Z,3.07
2023-09-04T02:56:33.390Z,2.83
2023-09-04T03:01:38.793Z,2.50
2023-09-04T03:06:44.004Z,3.23
2023-09-04T03:11:51.946Z,3.20
2023-09-04T03:16:57.174Z,2.90
2023-09-04T03:22:02.759Z,2.60
2023-09-04T03:27:10.880Z,2.53
2023-09-04T03:32:16.444Z,2.63
2023-09-04T03:37:21.654Z,2.80
2023-09-04T03:42:29.425Z,2.90
2023-09-04T03:47:34.597Z,3.13
2023-09-04T03:52:39.998Z,2.60
2023-09-04T03:57:52.734Z,3.00
2023-09-04T04:03:00.990Z,2.57
2023-09-04T04:08:07.794Z,3.33
2023-09-04T04:13:17.065Z,3.20
2023-09-04T04:18:22.708Z,2.93
2023-09-04T04:23:29.538Z,2.90
2023-09-04T04:28:37.242Z,2.93
2023-09-04T04:33:42.677Z,3.20
2023-09-04T04:38:47.962Z,3.10
2023-09-04T04:43:56.486Z,3.30
2023-09-04T04:49:01.822Z,3.30
2023-09-04T04:54:07.606Z,3.23
2023-09-04T04:59:15.580Z,3.03
2023-09-04T05:04:24.043Z,2.30
2023-09-04T05:09:31.030Z,2.87
2023-09-04T05:14:41.431Z,2.10
2023-09-04T05:19:49.909Z,2.80
2023-09-04T05:24:58.626Z,2.93
2023-09-04T05:30:16.266Z,2.43
2023-09-04T05:35:22.507Z,2.50
2023-09-04T05:40:27.928Z,2.50
2023-09-04T05:45:35.803Z,2.43
2023-09-04T05:50:41.006Z,2.27
2023-09-04T05:55:46.494Z,2.40
2023-09-04T06:00:54.297Z,2.10
2023-09-04T06:05:59.410Z,3.10
2023-09-04T06:11:04.910Z,2.93
2023-09-04T06:16:12.665Z,2.77
2023-09-04T06:21:17.999Z,2.50
2023-09-04T06:26:23.330Z,2.80
2023-09-04T06:31:31.429Z,2.57
2023-09-04T06:36:37.127Z,2.70
2023-09-04T06:41:43.569Z,2.83
2023-09-04T06:46:51.530Z,3.10
2023-09-04T06:51:56.948Z,2.83
2023-09-04T06:57:04.873Z,3.40
2023-09-04T07:02:13.120Z,2.55
2023-09-04T07:07:21.416Z,2.10
2023-09-04T07:12:26.492Z,2.03
2023-09-04T07:17:34.489Z,2.88
2023-09-04T07:22:39.964Z,2.00
2023-09-04T07:27:45.081Z,1.50
2023-09-04T07:32:52.975Z,1.50
2023-09-04T07:37:59.757Z,2.08
2023-09-04T07:43:05.998Z,2.00
2023-09-04T07:48:13.640Z,1.60
2023-09-04T07:53:18.723Z,1.70
2023-09-04T07:58:23.834Z,1.40
2023-09-04T08:03:31.703Z,1.52
2023-09-04T08:08:44.837Z,1.08
2023-09-04T08:13:59.718Z,1.20
2023-09-04T08:19:12.138Z,1.08
2023-09-04T08:29:58.321Z,1.40
2023-09-04T08:35:07.448Z,1.25
2023-09-04T08:40:13.338Z,1.17
2023-09-04T08:45:19.861Z,1.42
2023-09-04T08:50:29.375Z,1.35
2023-09-04T08:55:36.029Z,1.90
2023-09-04T09:00:52.296Z,1.23
2023-09-04T09:06:22.207Z,1.40
2023-09-04T09:11:33.602Z,0.88
2023-09-04T09:16:49.105Z,1.10
2023-09-04T09:22:25.997Z,1.33
2023-09-04T09:27:39.199Z,1.20
2023-09-04T09:32:50.534Z,1.38
2023-09-04T09:38:09.019Z,1.23
2023-09-04T09:43:23.144Z,1.23
2023-09-04T09:48:36.775Z,1.23
2023-09-04T09:54:09.586Z,1.40
2023-09-04T09:59:23.579Z,1.25
2023-09-04T10:04:35.298Z,1.25
2023-09-04T10:10:04.930Z,0.90
2023-09-04T10:15:18.451Z,1.33
2023-09-04T10:20:34.257Z,1.33
2023-09-04T10:26:01.097Z,1.35
2023-09-04T10:31:10.339Z,1.20
2023-09-04T10:36:16.668Z,1.50
2023-09-04T10:41:25.347Z,1.20
2023-09-04T10:46:30.601Z,1.20
2023-09-04T10:51:38.182Z,1.10
2023-09-04T10:57:07.162Z,1.30
2023-09-04T11:02:31.110Z,1.52
2023-09-04T11:07:38.322Z,1.38
2023-09-04T11:12:48.136Z,1.83
2023-09-04T11:17:56.939Z,1.58
2023-09-04T11:23:02.160Z,1.65
2023-09-04T11:28:10.386Z,1.63
2023-09-04T11:33:16.736Z,1.48
2023-09-04T11:38:29.165Z,1.55
2023-09-04T11:43:37.148Z,1.50
2023-09-04T11:48:42.814Z,1.45
2023-09-04T11:53:49.707Z,1.90
2023-09-04T11:58:58.167Z,1.50
2023-09-04T12:04:03.506Z,1.60
2023-09-04T12:09:09.469Z,1.70
2023-09-04T12:14:17.833Z,1.95
2023-09-04T12:19:28.185Z,1.67
2023-09-04T12:24:33.331Z,1.58
2023-09-04T12:29:42.828Z,1.60
2023-09-04T12:34:48.120Z,1.50
2023-09-04T12:39:57.970Z,1.35
2023-09-04T12:45:13.037Z,1.30
2023-09-04T12:50:23.148Z,1.92
2023-09-04T12:55:39.326Z,1.27
2023-09-04T13:00:56.284Z,1.20
2023-09-04T13:06:03.582Z,1.25
2023-09-04T13:11:13.234Z,1.40
2023-09-04T13:16:30.544Z,1.45
2023-09-04T13:21:44.176Z,1.40
2023-09-04T13:26:54.105Z,1.67
2023-09-04T13:32:07.436Z,1.63
2023-09-04T13:37:17.850Z,1.40
2023-09-04T13:42:33.499Z,1.42
2023-09-04T13:47:48.375Z,1.50
2023-09-04T13:53:00.261Z,1.48
2023-09-04T13:58:11.337Z,1.42
2023-09-04T14:03:26.230Z,1.33
2023-09-04T14:08:31.600Z,1.65
2023-09-04T14:13:36.814Z,1.17
2023-09-04T14:18:55.059Z,1.20
2023-09-04T14:24:12.528Z,1.27
2023-09-04T14:29:17.886Z,1.50
2023-09-04T14:34:25.862Z,1.10
2023-09-04T14:39:33.655Z,1.60
2023-09-04T14:44:38.703Z,1.50
2023-09-04T14:49:46.337Z,1.25
2023-09-04T14:54:53.476Z,1.70
2023-09-04T15:00:00.569Z,1.67
2023-09-04T15:05:08.922Z,1.83
2023-09-04T15:10:16.536Z,1.40
2023-09-04T15:15:24.903Z,1.20
2023-09-04T15:20:32.588Z,1.43
2023-09-04T15:25:37.635Z,1.50
2023-09-04T15:30:43.643Z,1.70
2023-09-04T15:35:51.618Z,1.60
2023-09-04T15:40:57.295Z,1.70
2023-09-04T15:46:03.152Z,1.77
2023-09-04T15:51:10.989Z,1.60
2023-09-04T15:56:16.019Z,1.60
2023-09-04T16:01:21.163Z,1.40
2023-09-04T16:06:28.834Z,1.58
2023-09-04T16:11:33.966Z,1.77
2023-09-04T16:16:39.090Z,1.50
2023-09-04T16:21:48.718Z,1.90
2023-09-04T16:26:57.586Z,1.57
2023-09-04T16:32:03.626Z,1.93
2023-09-04T16:37:11.308Z,1.70
2023-09-04T16:42:16.482Z,1.57
2023-09-04T16:47:26.329Z,1.60
2023-09-04T16:52:34.090Z,1.70
2023-09-04T16:57:39.207Z,2.00
2023-09-04T17:02:47.343Z,1.90
2023-09-04T17:07:55.144Z,2.00
2023-09-04T17:13:00.407Z,1.90
2023-09-04T17:18:08.978Z,1.97
2023-09-04T17:23:17.084Z,1.93
2023-09-04T17:28:24.791Z,2.07
2023-09-04T17:33:30.149Z,2.30
2023-09-04T17:38:37.955Z,2.23
2023-09-04T17:43:43.660Z,2.07
2023-09-04T17:48:48.710Z,1.93
2023-09-04T17:53:56.404Z,1.83
2023-09-04T17:59:01.485Z,2.10
2023-09-04T18:04:06.587Z,2.30
2023-09-04T18:09:15.027Z,2.70
2023-09-04T18:14:20.719Z,2.83
2023-09-04T18:19:26.889Z,2.80
2023-09-04T18:24:34.915Z,2.97
2023-09-04T18:29:39.974Z,2.53
2023-09-04T18:34:45.089Z,2.67
2023-09-04T18:39:54.562Z,2.70
2023-09-04T18:44:59.750Z,2.70
2023-09-04T18:50:05.676Z,2.60
2023-09-04T18:55:16.295Z,3.10
2023-09-04T19:00:23.544Z,2.50
2023-09-04T19:05:28.611Z,2.50
2023-09-04T19:10:39.405Z,2.90
2023-09-04T19:15:44.477Z,2.80
2023-09-04T19:20:54.465Z,3.30
2023-09-04T19:26:03.571Z,2.80
2023-09-04T19:31:08.755Z,2.90
2023-09-04T19:36:13.835Z,2.60
2023-09-04T19:41:21.623Z,3.03
2023-09-04T19:46:26.742Z,2.67
2023-09-04T19:51:31.871Z,2.83
2023-09-04T19:56:39.587Z,2.60
2023-09-04T20:01:44.737Z,2.80
2023-09-04T20:06:49.770Z,3.00
2023-09-04T20:12:00.268Z,3.60
2023-09-04T20:17:05.374Z,3.07
2023-09-04T20:22:10.536Z,2.90
2023-09-04T20:27:18.334Z,2.90
2023-09-04T20:32:23.486Z,3.30
2023-09-04T20:37:28.680Z,2.90
2023-09-04T20:42:36.614Z,3.10
2023-09-04T20:47:44.101Z,2.97
2023-09-04T20:52:50.001Z,3.30
2023-09-04T20:57:58.535Z,3.17
2023-09-04T21:03:03.724Z,5.87
2023-09-04T21:08:07.282Z,6.93
2023-09-04T21:13:28.714Z,5.87
2023-09-04T21:18:46.180Z,5.70
2023-09-04T21:24:03.725Z,4.90
2023-09-04T21:29:23.834Z,3.87
2023-09-04T21:34:41.568Z,3.10
2023-09-04T21:39:59.028Z,3.60
2023-09-04T21:45:19.719Z,3.33
2023-09-04T21:50:39.582Z,3.73
2023-09-04T21:55:57.099Z,3.50
2023-09-04T22:01:17.272Z,3.27
2023-09-04T22:06:34.867Z,2.90
2023-09-04T22:11:52.616Z,3.20
2023-09-04T22:17:12.784Z,3.53
2023-09-04T22:22:30.339Z,3.50
2023-09-04T22:27:47.873Z,3.20
2023-09-04T22:33:08.121Z,3.30
2023-09-04T22:38:25.691Z,2.97
2023-09-04T22:43:43.175Z,3.00
2023-09-04T22:49:05.932Z,3.17
2023-09-04T22:54:23.485Z,3.37
2023-09-04T22:59:42.249Z,3.30
2023-09-04T23:05:02.361Z,3.07
2023-09-04T23:10:20.648Z,3.10
2023-09-04T23:15:38.133Z,3.43
2023-09-04T23:20:58.235Z,3.43
2023-09-04T23:26:03.870Z,3.33
2023-09-04T23:31:09.003Z,3.17
2023-09-04T23:36:38.520Z,3.10
2023-09-04T23:41:56.148Z,3.13
2023-09-04T23:47:01.921Z,3.43
2023-09-04T23:52:10.693Z,3.10
2023-09-04T23:57:16.152Z,2.77
